Time;durP1;ratioP1;P1;durP2;ratioP2;P2;SDS_P1;SDS_P2;PMS_P1;PMS_P2;Temp;Humidity;BMP_temperature;BMP_pressure;BME280_temperature;BME280_humidity;BME280_pressure;Samples;Min_cycle;Max_cycle;Signal;HPM_P1;HPM_P2
2023/02/27 00:01:55;;;;;;;10.45;6.82;;;;;;;3.28;63.23;100316.94;5004895;28;20033;-73
2023/02/27 00:04:21;;;;;;;11.00;6.43;;;;;;;3.29;63.40;100337.22;5005868;28;20034;-73
2023/02/27 00:06:46;;;;;;;11.95;6.45;;;;;;;3.32;62.55;100350.28;5008021;28;20034;-66
2023/02/27 00:09:12;;;;;;;11.50;6.80;;;;;;;3.30;62.89;100341.56;5006405;28;20030;-66
2023/02/27 00:11:37;;;;;;;12.65;7.47;;;;;;;3.35;62.55;100353.59;5008685;28;20044;-73
2023/02/27 00:14:03;;;;;;;9.73;6.57;;;;;;;3.33;62.54;100357.28;5005886;28;20656;-73
2023/02/27 00:16:29;;;;;;;10.43;6.72;;;;;;;3.28;63.07;100354.03;5008008;28;20029;-71
2023/02/27 00:18:56;;;;;;;11.00;6.85;;;;;;;3.25;63.10;100347.13;5008772;28;20104;-72
2023/02/27 00:21:22;;;;;;;11.40;7.03;;;;;;;3.21;64.02;100353.53;5008265;28;20526;-72
2023/02/27 00:23:47;;;;;;;10.65;6.43;;;;;;;3.24;63.44;100360.44;5008486;28;20034;-72
2023/02/27 00:26:13;;;;;;;11.35;6.55;;;;;;;3.24;64.11;100363.97;5008039;28;20451;-73
2023/02/27 00:28:38;;;;;;;10.90;6.53;;;;;;;3.19;64.06;100354.59;5006335;28;20107;-72
2023/02/27 00:31:04;;;;;;;9.30;6.53;;;;;;;3.11;64.01;100352.38;5008140;28;20105;-72
2023/02/27 00:33:29;;;;;;;11.75;7.00;;;;;;;3.24;63.77;100373.69;5007884;28;20030;-71
2023/02/27 00:35:56;;;;;;;13.13;6.97;;;;;;;3.24;64.30;100373.69;5008242;28;20030;-73
2023/02/27 00:38:22;;;;;;;11.15;6.93;;;;;;;3.16;63.76;100363.53;5007733;28;20036;-72
2023/02/27 00:40:47;;;;;;;8.93;6.15;;;;;;;3.24;63.86;100381.66;5008131;28;20537;-73
2023/02/27 00:43:13;;;;;;;11.00;6.32;;;;;;;3.21;63.53;100385.34;5006126;28;20034;-73
2023/02/27 00:45:38;;;;;;;10.70;7.07;;;;;;;3.20;64.05;100385.44;5007726;28;20046;-73
2023/02/27 00:48:04;;;;;;;10.02;6.32;;;;;;;3.17;64.69;100394.41;5006991;28;20021;-73
2023/02/27 00:50:29;;;;;;;11.32;6.35;;;;;;;3.08;64.97;100378.16;5008233;28;20033;-73
2023/02/27 00:52:55;;;;;;;9.57;6.47;;;;;;;3.06;65.46;100380.06;5008049;28;20468;-73
2023/02/27 00:55:20;;;;;;;11.15;6.57;;;;;;;3.11;65.41;100392.09;5008469;28;20041;-73
2023/02/27 00:57:45;;;;;;;9.98;6.28;;;;;;;3.08;65.27;100389.63;5007849;28;20030;-73
2023/02/27 01:00:11;;;;;;;10.80;6.78;;;;;;;3.06;65.47;100382.72;5007465;28;20076;-71
2023/02/27 01:02:37;;;;;;;9.90;6.43;;;;;;;3.05;65.81;100379.19;5010944;28;20051;-72
2023/02/27 01:05:03;;;;;;;9.00;6.43;;;;;;;3.03;65.54;100380.22;5009908;28;20036;-73
2023/02/27 01:07:29;;;;;;;11.35;6.55;;;;;;;3.06;65.46;100386.19;5008137;28;20033;-73
2023/02/27 01:09:54;;;;;;;9.73;6.63;;;;;;;3.09;64.79;100387.84;5007565;28;20017;-72
2023/02/27 01:12:20;;;;;;;9.75;6.50;;;;;;;3.08;64.68;100392.28;5006964;28;20041;-72
2023/02/27 01:14:45;;;;;;;9.35;5.93;;;;;;;2.95;64.84;100375.34;5005352;28;20400;-74
2023/02/27 01:17:11;;;;;;;9.10;5.88;;;;;;;3.10;64.38;100393.06;5007631;28;20036;-73
2023/02/27 01:19:37;;;;;;;7.78;6.00;;;;;;;3.09;64.06;100391.31;5007616;28;20056;-73
2023/02/27 01:22:02;;;;;;;7.68;5.30;;;;;;;3.00;64.26;100391.00;5007463;28;20038;-73
2023/02/27 01:24:28;;;;;;;9.40;5.82;;;;;;;3.06;64.21;100403.91;5008573;28;20718;-73
2023/02/27 01:26:53;;;;;;;9.02;5.70;;;;;;;3.05;62.01;100396.88;5007371;28;20075;-73
2023/02/27 01:29:19;;;;;;;9.20;5.18;;;;;;;3.09;62.27;100415.16;5007911;28;20014;-73
2023/02/27 01:31:47;;;;;;;7.43;5.18;;;;;;;3.12;61.34;100422.09;5008235;28;20026;-72
2023/02/27 01:34:13;;;;;;;6.30;4.70;;;;;;;3.11;61.11;100430.97;5007787;28;20033;-72
2023/02/27 01:36:39;;;;;;;8.60;5.50;;;;;;;3.04;61.57;100429.63;5007281;28;20036;-73
2023/02/27 01:39:04;;;;;;;7.68;5.43;;;;;;;3.06;61.83;100439.19;5008953;28;20509;-73
2023/02/27 01:41:30;;;;;;;9.70;5.28;;;;;;;3.06;61.80;100441.81;5007144;28;20072;-73
2023/02/27 01:44:03;;;;;;;8.90;5.10;;;;;;;3.09;61.77;100438.19;5005491;28;20068;-73
2023/02/27 01:46:30;;;;;;;7.40;5.15;;;;;;;3.12;62.14;100454.75;5007077;28;20034;-72
2023/02/27 01:49:03;;;;;;;8.35;5.13;;;;;;;3.12;61.49;100451.22;5005615;28;20042;-73
2023/02/27 01:51:33;;;;;;;7.10;4.88;;;;;;;3.07;61.34;100434.75;5007196;28;20026;-73
2023/02/27 01:54:00;;;;;;;5.97;4.43;;;;;;;3.09;61.28;100449.59;5008445;28;20507;-72
2023/02/27 01:56:30;;;;;;;6.45;4.90;;;;;;;3.05;61.23;100453.38;5006649;28;20026;-73
2023/02/27 01:59:02;;;;;;;8.07;5.03;;;;;;;3.06;61.53;100456.91;5006731;28;20657;-73
2023/02/27 02:01:29;;;;;;;7.60;4.80;;;;;;;3.03;61.34;100462.34;5005502;28;20030;-73
2023/02/27 02:04:12;;;;;;;9.38;5.45;;;;;;;3.02;61.04;100452.69;5004334;28;20022;-65
2023/02/27 02:06:39;;;;;;;7.18;4.78;;;;;;;3.06;61.08;100465.66;5004015;28;20495;-66
2023/02/27 02:09:07;;;;;;;8.02;5.50;;;;;;;3.07;61.52;100469.19;5005558;28;20029;-67
2023/02/27 02:11:33;;;;;;;8.50;5.25;;;;;;;2.98;61.29;100456.44;5004069;28;20060;-65
2023/02/27 02:14:01;;;;;;;7.15;4.63;;;;;;;3.06;61.78;100478.09;5005978;28;20034;-67
2023/02/27 02:16:48;;;;;;;7.78;4.97;;;;;;;3.03;61.54;100476.44;5002841;28;20040;-65
2023/02/27 02:19:42;;;;;;;7.80;5.28;;;;;;;3.05;61.90;100479.00;5004111;28;20050;-65
2023/02/27 02:22:41;;;;;;;8.05;5.28;;;;;;;3.04;61.73;100479.94;5007118;28;20033;-66
2023/02/27 02:25:49;;;;;;;7.45;5.05;;;;;;;3.06;61.84;100486.88;5000538;28;20064;-66
2023/02/27 02:28:41;;;;;;;7.78;5.30;;;;;;;3.04;62.11;100495.84;4955192;28;20035;-66
2023/02/27 02:31:38;;;;;;;8.95;4.85;;;;;;;3.03;61.16;100491.50;4937512;28;20039;-66
2023/02/27 02:34:04;;;;;;;9.85;5.28;;;;;;;3.07;60.79;100491.25;4969310;28;20145;-65
2023/02/27 02:36:29;;;;;;;9.50;5.25;;;;;;;3.04;60.49;100493.19;5007003;28;21831;-66
2023/02/27 02:39:08;;;;;;;7.72;4.63;;;;;;;3.06;61.37;100499.28;5005320;28;20022;-65
2023/02/27 02:42:17;;;;;;;8.25;5.15;;;;;;;3.04;60.05;100495.84;5005927;28;20041;-73
2023/02/27 02:44:50;;;;;;;7.82;4.80;;;;;;;3.00;60.09;100495.16;5003119;28;20061;-73
2023/02/27 02:47:38;;;;;;;8.00;4.72;;;;;;;3.05;60.11;100506.38;5005440;28;20056;-72
2023/02/27 02:50:28;;;;;;;9.40;5.30;;;;;;;3.04;60.10;100506.44;5004251;28;20038;-73
2023/02/27 02:53:07;;;;;;;10.25;4.60;;;;;;;2.94;60.32;100489.34;5005686;28;20821;-72
2023/02/27 02:55:45;;;;;;;8.38;5.22;;;;;;;3.04;60.73;100509.97;5004201;28;20124;-73
2023/02/27 02:58:42;;;;;;;8.73;5.55;;;;;;;3.02;60.18;100519.78;5006441;28;20483;-73
2023/02/27 03:01:34;;;;;;;7.35;5.22;;;;;;;3.01;60.19;100515.41;5002815;28;20037;-73
2023/02/27 03:04:15;;;;;;;11.48;5.43;;;;;;;3.03;60.24;100523.28;5005155;28;20419;-72
2023/02/27 03:06:50;;;;;;;8.38;5.28;;;;;;;2.94;60.25;100511.41;5003057;28;20046;-73
2023/02/27 03:09:23;;;;;;;7.35;4.93;;;;;;;2.97;60.26;100526.25;5005512;28;20063;-72
2023/02/27 03:11:52;;;;;;;6.90;5.10;;;;;;;2.95;60.15;100523.69;5004200;28;20068;-75
2023/02/27 03:14:27;;;;;;;9.48;5.22;;;;;;;2.83;59.88;100511.09;5002155;28;20038;-66
2023/02/27 03:16:58;;;;;;;10.35;4.93;;;;;;;2.92;59.99;100522.97;5003412;28;20375;-66
2023/02/27 03:19:32;;;;;;;6.68;4.53;;;;;;;2.74;59.27;100493.03;5002568;28;20041;-66
2023/02/27 03:21:58;;;;;;;7.00;4.40;;;;;;;2.86;58.89;100518.00;5002521;28;20018;-66
2023/02/27 03:24:30;;;;;;;7.97;4.35;;;;;;;2.82;58.71;100503.22;5002860;28;20025;-65
2023/02/27 03:27:01;;;;;;;7.78;4.15;;;;;;;2.70;58.35;100507.38;5004508;28;20030;-66
2023/02/27 03:29:36;;;;;;;6.63;3.90;;;;;;;2.74;58.39;100521.34;5004624;28;20408;-66
2023/02/27 03:32:15;;;;;;;6.60;3.50;;;;;;;2.76;58.33;100535.31;5003772;28;20044;-66
2023/02/27 03:34:42;;;;;;;8.18;4.13;;;;;;;2.62;58.44;100509.59;5001766;28;20637;-66
2023/02/27 03:37:34;;;;;;;6.75;4.05;;;;;;;2.65;58.66;100535.03;5005817;28;20032;-66
2023/02/27 03:40:18;;;;;;;5.82;4.00;;;;;;;2.67;58.70;100541.13;5006820;28;20169;-65
2023/02/27 03:42:56;;;;;;;6.47;3.80;;;;;;;2.72;58.58;100547.03;5007290;28;20423;-66
2023/02/27 03:45:41;;;;;;;8.48;4.20;;;;;;;2.74;58.26;100543.34;5006070;28;20038;-67
2023/02/27 03:48:08;;;;;;;6.85;3.50;;;;;;;2.60;58.30;100535.28;4999283;28;20045;-66
2023/02/27 03:50:35;;;;;;;4.93;3.15;;;;;;;2.58;58.79;100525.72;5008104;28;20529;-65
2023/02/27 03:53:05;;;;;;;4.72;3.25;;;;;;;2.49;58.73;100516.47;5007613;28;20532;-65
2023/02/27 03:55:38;;;;;;;4.45;3.17;;;;;;;2.54;58.62;100518.88;5008072;28;20030;-66
2023/02/27 03:58:04;;;;;;;7.18;3.95;;;;;;;2.68;58.57;100542.84;5004570;28;20454;-65
2023/02/27 04:00:29;;;;;;;5.43;3.60;;;;;;;2.47;58.51;100523.63;5007909;28;20033;-65
2023/02/27 04:02:58;;;;;;;7.68;3.60;;;;;;;2.55;59.27;100544.41;5008179;28;20725;-66
2023/02/27 04:05:24;;;;;;;5.82;3.45;;;;;;;2.56;58.82;100549.63;5007627;28;20042;-65
2023/02/27 04:08:13;;;;;;;7.65;4.13;;;;;;;2.60;58.81;100569.69;5007740;28;20068;-66
2023/02/27 04:10:59;;;;;;;6.93;4.05;;;;;;;2.56;59.36;100570.78;4993204;28;20034;-66
2023/02/27 04:13:57;;;;;;;8.52;4.32;;;;;;;2.55;59.65;100586.75;5007661;28;20037;-66
2023/02/27 04:16:50;;;;;;;8.10;3.65;;;;;;;2.51;59.78;100582.56;4975266;28;20048;-67
2023/02/27 04:19:45;;;;;;;6.53;3.67;;;;;;;2.51;60.14;100585.22;5007124;28;20038;-67
2023/02/27 04:22:58;;;;;;;8.02;4.78;;;;;;;2.49;60.39;100593.22;4994574;28;20050;-66
2023/02/27 04:25:55;;;;;;;8.70;4.93;;;;;;;2.42;61.36;100593.59;4994283;28;20040;-66
2023/02/27 04:28:39;;;;;;;6.78;5.30;;;;;;;2.25;62.51;100576.78;5008049;28;20029;-66
2023/02/27 04:31:29;;;;;;;9.37;5.27;;;;;;;2.30;63.32;100601.19;5005137;28;20034;-66
2023/02/27 04:33:55;;;;;;;12.55;5.70;;;;;;;2.29;63.69;100596.03;5005585;28;20087;-66
2023/02/27 04:36:33;;;;;;;9.57;5.82;;;;;;;2.18;64.07;100587.72;5005597;28;20045;-66
2023/02/27 04:39:09;;;;;;;10.82;5.60;;;;;;;2.23;64.71;100601.59;5005973;28;20034;-66
2023/02/27 04:41:47;;;;;;;10.75;6.07;;;;;;;2.07;64.80;100582.13;5005657;28;20022;-65
2023/02/27 04:44:15;;;;;;;10.23;6.38;;;;;;;1.97;65.12;100572.94;5007074;28;20034;-66
2023/02/27 04:46:43;;;;;;;12.38;7.45;;;;;;;2.04;65.40;100598.97;5007158;28;20029;-66
2023/02/27 04:49:18;;;;;;;10.07;6.53;;;;;;;2.06;65.99;100620.94;5006226;28;20025;-72
2023/02/27 04:51:52;;;;;;;11.57;6.50;;;;;;;2.00;65.97;100625.69;5007545;28;20030;-72
2023/02/27 04:54:23;;;;;;;11.48;6.28;;;;;;;1.97;66.31;100624.00;5005590;28;20030;-73
2023/02/27 04:56:55;;;;;;;10.85;6.22;;;;;;;1.89;66.84;100623.53;5005391;28;20034;-73
2023/02/27 04:59:38;;;;;;;11.27;6.72;;;;;;;1.78;66.75;100617.06;5007598;28;20036;-72
2023/02/27 05:02:27;;;;;;;9.98;6.38;;;;;;;1.79;67.04;100618.75;5005811;28;20391;-72
2023/02/27 05:04:57;;;;;;;15.82;9.13;;;;;;;1.72;67.55;100617.34;5005997;28;20356;-73
2023/02/27 05:07:29;;;;;;;22.30;13.02;;;;;;;1.59;67.86;100617.06;5007708;28;20063;-73
2023/02/27 05:10:02;;;;;;;33.92;16.35;;;;;;;1.54;67.99;100613.75;5007507;28;20035;-72
2023/02/27 05:12:40;;;;;;;32.10;16.15;;;;;;;1.52;68.11;100626.19;5006690;28;20033;-72
2023/02/27 05:15:20;;;;;;;24.00;13.07;;;;;;;1.53;68.75;100642.91;5005703;28;20099;-72
2023/02/27 05:18:00;;;;;;;18.02;11.27;;;;;;;1.45;68.65;100639.75;5005283;28;20420;-73
2023/02/27 05:20:38;;;;;;;18.17;10.73;;;;;;;1.43;69.12;100642.47;5011718;28;20054;-72
2023/02/27 05:23:15;;;;;;;14.63;7.60;;;;;;;1.46;68.94;100644.97;5004366;28;20041;-72
2023/02/27 05:25:53;;;;;;;13.15;7.43;;;;;;;1.31;68.41;100631.59;5008411;28;20030;-73
2023/02/27 05:28:27;;;;;;;14.95;7.20;;;;;;;1.37;69.10;100649.81;5010225;28;20455;-72
2023/02/27 05:30:58;;;;;;;;;;;;;;;1.38;69.07;100647.09;5012573;28;20111;-72
2023/02/27 05:33:34;;;;;;;10.07;6.30;;;;;;;1.42;69.10;100647.84;5008567;28;19917;-74
2023/02/27 05:36:07;;;;;;;12.27;7.15;;;;;;;1.42;68.86;100653.94;5005928;28;20041;-72
2023/02/27 05:38:36;;;;;;;12.50;6.93;;;;;;;1.48;68.54;100666.88;5004422;28;20683;-73
2023/02/27 05:41:10;;;;;;;10.43;6.32;;;;;;;1.59;66.89;100664.63;5003833;28;20160;-67
2023/02/27 05:43:42;;;;;;;11.02;6.35;;;;;;;1.48;67.51;100668.69;5002025;28;20033;-66
2023/02/27 05:46:20;;;;;;;10.25;6.43;;;;;;;1.36;68.20;100659.50;5005342;28;20485;-66
2023/02/27 05:49:06;;;;;;;12.27;7.32;;;;;;;1.32;68.33;100671.16;5004298;28;20030;-66
2023/02/27 05:51:34;;;;;;;12.77;7.53;;;;;;;1.36;68.79;100685.94;5004206;28;20037;-66
2023/02/27 05:54:12;;;;;;;12.77;6.63;;;;;;;1.33;69.11;100694.03;5005726;28;20041;-67
2023/02/27 05:56:39;;;;;;;11.93;6.60;;;;;;;1.39;69.08;100703.47;5002010;28;20459;-67
2023/02/27 05:59:16;;;;;;;10.95;6.70;;;;;;;1.16;68.87;100670.09;5003436;28;20030;-66
2023/02/27 06:01:42;;;;;;;10.32;6.00;;;;;;;1.37;69.22;100710.56;5004157;28;20065;-73
2023/02/27 06:04:08;;;;;;;10.63;6.15;;;;;;;1.42;69.05;100720.00;5005896;28;20445;-73
2023/02/27 06:06:35;;;;;;;10.05;5.75;;;;;;;1.44;68.70;100723.47;5002688;28;20399;-73
2023/02/27 06:09:00;;;;;;;9.00;5.53;;;;;;;1.48;68.24;100730.31;5003026;28;20060;-72
2023/02/27 06:11:26;;;;;;;10.25;5.63;;;;;;;1.52;68.30;100734.53;5004751;28;20060;-73
2023/02/27 06:13:52;;;;;;;8.63;5.25;;;;;;;1.59;67.58;100743.06;5006697;28;20026;-72
2023/02/27 06:16:17;;;;;;;11.55;6.22;;;;;;;1.64;66.87;100746.34;5004461;28;20133;-73
2023/02/27 06:18:42;;;;;;;9.88;5.40;;;;;;;1.70;66.79;100767.22;5004555;28;20042;-73
2023/02/27 06:21:08;;;;;;;11.23;5.65;;;;;;;1.64;66.62;100770.13;5005768;28;20073;-73
2023/02/27 06:23:33;;;;;;;10.75;5.45;;;;;;;1.62;66.71;100772.00;5005278;28;20096;-72
2023/02/27 06:25:59;;;;;;;9.65;6.28;;;;;;;1.59;66.75;100769.50;5003959;28;20060;-73
2023/02/27 06:28:24;;;;;;;7.88;5.25;;;;;;;1.68;67.19;100787.59;5003318;28;20033;-73
2023/02/27 06:30:54;;;;;;;9.55;6.03;;;;;;;1.85;66.74;100785.94;5004902;28;20472;-73
2023/02/27 06:33:19;;;;;;;10.95;6.70;;;;;;;1.85;66.14;100787.69;5003988;28;20443;-73
2023/02/27 06:35:48;;;;;;;13.88;6.85;;;;;;;1.94;66.33;100798.72;5005109;28;20034;-72
2023/02/27 06:38:14;;;;;;;13.02;7.20;;;;;;;2.01;66.13;100804.59;5004384;28;20112;-72
2023/02/27 06:40:39;;;;;;;13.80;6.35;;;;;;;1.98;66.14;100800.31;5005129;28;20037;-72
2023/02/27 06:43:05;;;;;;;10.52;6.03;;;;;;;1.86;66.85;100797.34;5005601;28;20484;-73
2023/02/27 06:45:30;;;;;;;13.00;5.97;;;;;;;1.89;67.54;100805.13;5006485;28;20378;-72
2023/02/27 06:47:56;;;;;;;9.23;5.15;;;;;;;1.91;66.82;100808.59;5007389;28;20113;-72
2023/02/27 06:50:21;;;;;;;8.45;5.53;;;;;;;1.90;66.97;100799.78;5006474;28;20034;-72
2023/02/27 06:52:47;;;;;;;11.90;6.13;;;;;;;1.99;67.09;100809.94;5006560;28;20400;-73
2023/02/27 06:55:18;;;;;;;13.27;6.13;;;;;;;2.06;66.25;100807.88;5006634;28;20037;-73
2023/02/27 06:57:44;;;;;;;11.38;6.05;;;;;;;2.10;66.28;100806.84;5004847;28;20033;-73
2023/02/27 07:00:11;;;;;;;10.27;6.10;;;;;;;2.09;66.01;100803.31;5006394;28;20037;-74
2023/02/27 07:02:37;;;;;;;11.07;6.00;;;;;;;2.21;64.70;100813.34;5006507;28;20124;-72
2023/02/27 07:05:02;;;;;;;10.30;5.63;;;;;;;2.24;64.54;100807.91;5005242;28;20173;-73
2023/02/27 07:07:28;;;;;;;10.02;5.05;;;;;;;2.34;63.60;100818.91;5008005;28;20033;-73
2023/02/27 07:09:53;;;;;;;7.95;4.43;;;;;;;2.43;62.71;100824.63;5005576;28;20030;-73
2023/02/27 07:12:19;;;;;;;11.38;5.18;;;;;;;2.42;62.07;100815.94;5005260;28;20033;-72
2023/02/27 07:14:44;;;;;;;9.55;4.50;;;;;;;2.47;62.43;100821.84;5007049;28;20124;-72
2023/02/27 07:17:10;;;;;;;8.80;4.78;;;;;;;2.56;61.80;100830.22;5006375;28;20022;-73
2023/02/27 07:19:36;;;;;;;10.25;4.90;;;;;;;2.62;61.62;100832.59;5006089;28;20025;-73
2023/02/27 07:22:02;;;;;;;7.53;4.85;;;;;;;2.63;61.57;100830.78;5005325;28;20111;-65
2023/02/27 07:24:28;;;;;;;8.88;4.90;;;;;;;2.67;62.25;100822.63;5002208;28;20030;-65
2023/02/27 07:26:53;;;;;;;9.70;4.55;;;;;;;2.99;60.89;100858.16;5003667;28;20030;-65
2023/02/27 07:29:19;;;;;;;9.07;5.00;;;;;;;2.82;61.18;100827.19;5003865;28;20024;-66
2023/02/27 07:31:44;;;;;;;6.15;4.25;;;;;;;2.98;60.56;100837.91;5004499;28;20026;-67
2023/02/27 07:34:10;;;;;;;9.95;4.72;;;;;;;3.10;61.25;100845.25;5003297;28;20047;-67
2023/02/27 07:36:37;;;;;;;10.20;5.03;;;;;;;3.15;60.57;100848.53;5003795;28;20083;-65
2023/02/27 07:39:04;;;;;;;7.18;4.38;;;;;;;3.29;59.71;100841.63;5001574;28;20037;-65
2023/02/27 07:41:29;;;;;;;8.20;4.57;;;;;;;3.45;58.83;100849.69;4998654;28;20053;-65
2023/02/27 07:43:55;;;;;;;7.18;4.15;;;;;;;3.49;57.83;100853.88;5000629;28;20512;-66
2023/02/27 07:46:22;;;;;;;8.57;4.15;;;;;;;3.70;56.81;100861.59;5002605;28;20050;-66
2023/02/27 07:48:49;;;;;;;6.22;4.18;;;;;;;3.74;57.03;100843.75;5002178;28;20025;-65
2023/02/27 07:51:14;;;;;;;7.05;4.65;;;;;;;4.05;57.19;100873.03;5003599;28;20065;-66
2023/02/27 07:53:40;;;;;;;6.63;4.47;;;;;;;4.12;56.31;100847.91;5006328;28;20264;-66
2023/02/27 07:56:06;;;;;;;6.70;4.43;;;;;;;4.30;55.75;100850.44;5005584;28;20029;-65
2023/02/27 07:58:31;;;;;;;7.93;4.55;;;;;;;4.58;55.13;100874.56;5004607;28;20030;-65
2023/02/27 08:00:56;;;;;;;8.70;5.13;;;;;;;4.72;53.83;100860.53;5004942;28;20109;-65
2023/02/27 08:03:22;;;;;;;8.38;4.88;;;;;;;5.00;52.30;100867.81;5004488;28;20037;-66
2023/02/27 08:05:47;;;;;;;5.40;4.40;;;;;;;5.12;51.55;100862.66;5004050;28;20034;-66
2023/02/27 08:08:13;;;;;;;8.70;4.38;;;;;;;5.06;51.08;100839.06;5002867;28;20660;-65
2023/02/27 08:10:38;;;;;;;10.18;4.45;;;;;;;5.38;51.00;100883.28;5004798;28;20037;-65
2023/02/27 08:13:04;;;;;;;8.15;4.25;;;;;;;5.55;50.73;100877.00;5000378;28;20030;-66
2023/02/27 08:15:31;;;;;;;7.15;4.03;;;;;;;5.56;48.86;100876.06;5002346;28;20030;-66
2023/02/27 08:17:57;;;;;;;7.55;4.78;;;;;;;5.38;49.34;100885.13;5004266;28;20034;-66
2023/02/27 08:20:23;;;;;;;6.88;4.25;;;;;;;5.24;50.07;100875.25;5002275;28;20316;-66
2023/02/27 08:22:48;;;;;;;6.03;4.03;;;;;;;5.33;50.78;100905.78;5005347;28;20499;-65
2023/02/27 08:25:14;;;;;;;11.25;4.22;;;;;;;5.07;50.27;100867.38;5008044;28;20030;-66
2023/02/27 08:27:40;;;;;;;7.65;4.28;;;;;;;5.29;50.21;100914.88;5013006;28;20032;-67
2023/02/27 08:30:08;;;;;;;6.82;4.20;;;;;;;5.12;50.76;100899.03;5007142;28;20045;-67
2023/02/27 08:32:33;;;;;;;7.40;4.18;;;;;;;5.11;50.08;100903.47;5007875;28;20029;-67
2023/02/27 08:34:59;;;;;;;6.65;4.22;;;;;;;5.09;49.76;100918.66;5007709;28;20053;-67
2023/02/27 08:37:25;;;;;;;6.70;4.10;;;;;;;5.21;48.90;100917.97;5008946;28;20121;-66
2023/02/27 08:39:50;;;;;;;7.47;3.90;;;;;;;5.13;49.13;100929.97;5009162;28;20042;-67
2023/02/27 08:42:16;;;;;;;6.28;3.60;;;;;;;5.07;49.39;100927.66;5008627;28;20587;-66
2023/02/27 08:44:41;;;;;;;6.28;3.53;;;;;;;4.88;49.11;100898.59;5007270;28;20042;-66
2023/02/27 08:47:07;;;;;;;8.38;3.90;;;;;;;4.94;49.32;100906.22;5006801;28;20026;-65
2023/02/27 08:49:32;;;;;;;7.63;3.97;;;;;;;4.83;49.09;100890.00;5006296;28;20025;-66
2023/02/27 08:51:58;;;;;;;9.20;4.15;;;;;;;4.75;48.94;100893.06;5006592;28;20143;-66
2023/02/27 08:54:23;;;;;;;6.15;3.50;;;;;;;4.64;48.62;100878.66;5005007;28;20040;-67
2023/02/27 08:56:49;;;;;;;5.13;3.35;;;;;;;4.75;48.71;100900.22;5005537;28;20032;-67
2023/02/27 08:59:14;;;;;;;7.15;3.85;;;;;;;4.63;48.90;100888.44;5006129;28;20028;-65
2023/02/27 09:01:40;;;;;;;9.30;4.50;;;;;;;4.80;49.63;100916.75;5006552;28;20065;-66
2023/02/27 09:04:06;;;;;;;6.50;4.07;;;;;;;4.90;49.69;100930.41;5005108;28;20069;-67
2023/02/27 09:06:33;;;;;;;8.88;3.97;;;;;;;5.01;48.76;100926.22;5004960;28;20030;-66
2023/02/27 09:08:59;;;;;;;5.95;3.40;;;;;;;4.92;48.19;100913.41;5007168;28;20388;-66
2023/02/27 09:11:27;;;;;;;6.88;3.67;;;;;;;4.95;48.13;100907.94;5006655;28;20104;-67
2023/02/27 09:13:53;;;;;;;7.13;3.70;;;;;;;5.12;47.75;100921.13;5004882;28;20030;-67
2023/02/27 09:16:20;;;;;;;5.90;3.75;;;;;;;5.18;48.50;100899.53;5006080;28;21866;-67
2023/02/27 09:18:45;;;;;;;6.72;3.63;;;;;;;5.24;49.00;100891.22;5004978;28;20029;-65
2023/02/27 09:21:11;;;;;;;10.05;4.75;;;;;;;5.46;49.03;100914.78;5005302;28;20046;-66
2023/02/27 09:23:36;;;;;;;6.45;3.50;;;;;;;5.54;48.38;100909.84;5006393;28;20041;-66
2023/02/27 09:26:02;;;;;;;9.05;3.50;;;;;;;5.69;47.96;100904.53;5004708;28;20026;-66
2023/02/27 09:28:27;;;;;;;6.20;3.67;;;;;;;5.84;47.96;100908.94;5004255;28;20026;-66
2023/02/27 09:30:53;;;;;;;7.65;4.15;;;;;;;6.25;46.71;100923.31;5004877;28;20451;-67
2023/02/27 09:33:18;;;;;;;9.23;3.83;;;;;;;6.61;46.80;100931.72;5004268;28;20484;-67
2023/02/27 09:35:44;;;;;;;8.55;3.97;;;;;;;6.65;45.21;100935.06;5005671;28;20025;-67
2023/02/27 09:38:11;;;;;;;7.80;4.03;;;;;;;6.58;46.00;100934.59;5010045;28;20187;-73
2023/02/27 09:40:49;;;;;;;7.13;4.18;;;;;;;6.46;46.21;100934.50;5007738;28;20122;-73
2023/02/27 09:43:22;;;;;;;4.80;3.55;;;;;;;6.39;47.10;100939.31;5008089;28;20033;-73
2023/02/27 09:45:53;;;;;;;7.07;3.50;;;;;;;6.48;45.73;100933.44;5008198;28;20041;-74
2023/02/27 09:48:33;;;;;;;7.28;3.80;;;;;;;6.70;45.72;100936.50;5007603;28;20263;-73
2023/02/27 09:51:00;;;;;;;6.55;2.97;;;;;;;7.00;44.51;100942.56;5004708;28;20044;-74
2023/02/27 09:53:41;;;;;;;5.60;3.70;;;;;;;7.10;43.36;100932.19;5007253;28;20036;-73
2023/02/27 09:56:24;;;;;;;5.22;3.10;;;;;;;7.43;43.19;100940.69;5007374;28;20025;-72
2023/02/27 09:59:22;;;;;;;4.63;3.25;;;;;;;7.59;43.24;100948.53;5007204;28;20041;-73
2023/02/27 10:02:04;;;;;;;4.80;3.38;;;;;;;7.77;43.13;100958.00;5000906;28;20042;-66
2023/02/27 10:04:54;;;;;;;6.32;4.05;;;;;;;7.71;42.94;100966.44;5004612;28;20022;-66
2023/02/27 10:07:37;;;;;;;7.47;3.80;;;;;;;7.86;42.42;100950.25;5006139;28;20049;-65
2023/02/27 10:10:14;;;;;;;5.90;3.63;;;;;;;8.32;42.10;100962.22;5006148;28;20030;-66
2023/02/27 10:13:12;;;;;;;7.65;3.65;;;;;;;8.67;41.48;100960.66;5003717;28;20053;-66
2023/02/27 10:15:47;;;;;;;5.85;3.65;;;;;;;8.96;40.47;100942.53;4992305;28;20037;-67
2023/02/27 10:18:20;;;;;;;7.95;3.65;;;;;;;9.40;38.85;100944.69;5003340;28;20361;-67
2023/02/27 10:20:55;;;;;;;7.13;4.05;;;;;;;9.90;38.75;100952.53;5005412;28;20033;-67
2023/02/27 10:23:36;;;;;;;5.57;3.33;;;;;;;10.79;37.50;100938.41;5007329;28;20344;-67
2023/02/27 10:26:02;;;;;;;8.77;3.63;;;;;;;11.27;36.81;100942.56;5004426;28;20029;-67
2023/02/27 10:28:28;;;;;;;5.60;3.30;;;;;;;11.24;35.93;100940.97;5003660;28;20586;-67
2023/02/27 10:30:58;;;;;;;5.47;3.65;;;;;;;10.62;36.83;100941.56;5005363;28;20044;-67
2023/02/27 10:33:34;;;;;;;7.63;3.47;;;;;;;10.15;36.75;100929.16;5003917;28;20022;-66
2023/02/27 10:36:01;;;;;;;5.45;3.65;;;;;;;9.71;38.17;100941.47;5005605;28;20040;-66
2023/02/27 10:38:37;;;;;;;6.90;3.50;;;;;;;9.16;39.24;100958.91;5005233;28;20029;-66
2023/02/27 10:41:06;;;;;;;7.10;3.65;;;;;;;8.50;40.35;100926.22;5004102;28;20038;-66
2023/02/27 10:43:31;;;;;;;4.80;3.60;;;;;;;8.31;40.35;100938.28;5001815;28;20484;-66
2023/02/27 10:46:02;;;;;;;6.63;3.05;;;;;;;7.97;40.73;100947.69;5005792;28;20061;-66
2023/02/27 10:48:30;;;;;;;8.32;3.78;;;;;;;7.61;41.39;100938.63;5004838;28;20030;-66
2023/02/27 10:51:18;;;;;;;7.60;3.85;;;;;;;7.36;41.44;100941.16;5004014;28;20041;-66
2023/02/27 10:53:43;;;;;;;5.57;3.55;;;;;;;7.15;41.68;100924.72;5003947;28;20029;-67
2023/02/27 10:56:17;;;;;;;7.30;4.00;;;;;;;7.08;42.26;100950.09;5003801;28;20044;-67
2023/02/27 10:58:43;;;;;;;11.30;3.72;;;;;;;7.02;43.13;100962.97;5005447;28;20113;-67
2023/02/27 11:01:10;;;;;;;7.75;3.72;;;;;;;6.89;43.60;100955.72;5004008;28;20156;-67
2023/02/27 11:03:41;;;;;;;8.57;4.32;;;;;;;6.83;43.72;100974.78;5002748;28;20034;-67
2023/02/27 11:06:21;;;;;;;7.10;3.60;;;;;;;6.76;43.90;100967.25;5003489;28;20030;-68
2023/02/27 11:09:20;;;;;;;6.47;3.65;;;;;;;6.70;44.53;100949.81;5004146;28;20049;-66
2023/02/27 11:11:46;;;;;;;7.70;4.30;;;;;;;6.49;44.64;100927.16;5004786;28;20447;-67
2023/02/27 11:14:27;;;;;;;7.38;4.65;;;;;;;6.54;45.39;100941.06;5003785;28;20018;-66
2023/02/27 11:16:58;;;;;;;5.72;3.90;;;;;;;6.47;44.85;100933.53;5004871;28;20112;-66
2023/02/27 11:19:38;;;;;;;9.60;4.10;;;;;;;6.43;45.06;100940.88;5004474;28;20026;-66
2023/02/27 11:22:14;;;;;;;7.60;4.22;;;;;;;6.47;44.44;100944.19;5002617;28;20042;-67
2023/02/27 11:24:40;;;;;;;6.60;4.18;;;;;;;6.59;44.02;100968.28;5003154;28;20041;-67
2023/02/27 11:27:27;;;;;;;6.32;4.25;;;;;;;6.53;44.91;100962.47;5003233;28;20034;-67
2023/02/27 11:30:05;;;;;;;5.72;3.78;;;;;;;6.62;45.58;100965.41;5002873;28;20026;-66
2023/02/27 11:32:42;;;;;;;7.40;4.43;;;;;;;6.60;44.62;100958.47;5002957;28;20080;-66
2023/02/27 11:35:34;;;;;;;9.02;4.70;;;;;;;6.63;45.17;100964.47;5002655;28;20026;-67
2023/02/27 11:38:05;;;;;;;5.63;3.45;;;;;;;6.74;44.26;100958.50;5005355;28;20022;-66
2023/02/27 11:40:35;;;;;;;7.63;4.03;;;;;;;6.70;44.59;100957.81;5004800;28;20046;-66
2023/02/27 11:43:15;;;;;;;5.63;3.65;;;;;;;6.72;44.57;100960.41;5005066;28;20104;-67
2023/02/27 11:45:48;;;;;;;7.53;3.63;;;;;;;6.70;43.66;100949.81;5005037;28;20026;-66
2023/02/27 11:48:22;;;;;;;5.85;3.70;;;;;;;6.75;43.44;100957.53;5002629;28;20037;-67
2023/02/27 11:51:20;;;;;;;7.07;4.05;;;;;;;6.79;44.09;100965.25;5005090;28;20044;-67
2023/02/27 11:53:51;;;;;;;6.78;3.53;;;;;;;6.88;43.98;100971.81;4991293;28;20054;-68